sensor_id;sensor_type;location;lat;lon;timestamp;pressure;altitude;pressure_sealevel;temperature;humidity
56912;BME280;42800;53.928;27.662;2023-06-10T00:01:43;98338.81;;;14.32;100.00
56912;BME280;42800;53.928;27.662;2023-06-10T00:04:12;98375.09;;;14.31;100.00
56912;BME280;42800;53.928;27.662;2023-06-10T00:06:38;98351.88;;;14.28;100.00
56912;BME280;42800;53.928;27.662;2023-06-10T00:09:05;98374.47;;;14.12;100.00
56912;BME280;42800;53.928;27.662;2023-06-10T00:11:32;98387.84;;;14.14;100.00
56912;BME280;42800;53.928;27.662;2023-06-10T00:13:59;98395.06;;;14.01;100.00
56912;BME280;42800;53.928;27.662;2023-06-10T00:16:25;98387.66;;;13.91;100.00
56912;BME280;42800;53.928;27.662;2023-06-10T00:18:52;98383.41;;;13.79;100.00
56912;BME280;42800;53.928;27.662;2023-06-10T00:21:18;98403.47;;;13.83;100.00
56912;BME280;42800;53.928;27.662;2023-06-10T00:23:44;98423.09;;;13.88;100.00
56912;BME280;42800;53.928;27.662;2023-06-10T00:26:10;98420.34;;;13.85;100.00
56912;BME280;42800;53.928;27.662;2023-06-10T00:28:36;98425.91;;;13.81;100.00
56912;BME280;42800;53.928;27.662;2023-06-10T00:31:02;98425.16;;;13.77;100.00
56912;BME280;42800;53.928;27.662;2023-06-10T00:33:29;98426.28;;;13.83;100.00
56912;BME280;42800;53.928;27.662;2023-06-10T00:36:14;98439.75;;;13.71;100.00
56912;BME280;42800;53.928;27.662;2023-06-10T00:38:40;98444.03;;;13.75;100.00
56912;BME280;42800;53.928;27.662;2023-06-10T00:41:06;98457.41;;;13.77;100.00
56912;BME280;42800;53.928;27.662;2023-06-10T00:43:33;98448.75;;;13.78;100.00
56912;BME280;42800;53.928;27.662;2023-06-10T00:45:59;98477.91;;;13.72;100.00
56912;BME280;42800;53.928;27.662;2023-06-10T00:48:25;98494.75;;;13.85;100.00
56912;BME280;42800;53.928;27.662;2023-06-10T00:50:51;98480.31;;;13.67;100.00
56912;BME280;42800;53.928;27.662;2023-06-10T00:53:18;98494.41;;;13.72;100.00
56912;BME280;42800;53.928;27.662;2023-06-10T00:55:46;98483.44;;;13.65;100.00
56912;BME280;42800;53.928;27.662;2023-06-10T00:58:12;98490.50;;;13.66;100.00
56912;BME280;42800;53.928;27.662;2023-06-10T01:00:38;98503.91;;;13.68;100.00
56912;BME280;42800;53.928;27.662;2023-06-10T01:03:04;98522.41;;;13.67;100.00
56912;BME280;42800;53.928;27.662;2023-06-10T01:05:33;98513.81;;;13.54;100.00
56912;BME280;42800;53.928;27.662;2023-06-10T01:08:03;98534.22;;;13.60;100.00
56912;BME280;42800;53.928;27.662;2023-06-10T01:10:35;98537.38;;;13.59;100.00
56912;BME280;42800;53.928;27.662;2023-06-10T01:13:03;98524.06;;;13.50;100.00
56912;BME280;42800;53.928;27.662;2023-06-10T01:15:29;98550.31;;;13.65;100.00
56912;BME280;42800;53.928;27.662;2023-06-10T01:17:57;98561.81;;;13.50;100.00
56912;BME280;42800;53.928;27.662;2023-06-10T01:20:25;98584.25;;;13.41;100.00
56912;BME280;42800;53.928;27.662;2023-06-10T01:22:53;98574.44;;;13.40;100.00
56912;BME280;42800;53.928;27.662;2023-06-10T01:25:19;98556.72;;;13.41;100.00
56912;BME280;42800;53.928;27.662;2023-06-10T01:27:49;98588.16;;;13.51;100.00
56912;BME280;42800;53.928;27.662;2023-06-10T01:30:18;98614.88;;;13.64;100.00
56912;BME280;42800;53.928;27.662;2023-06-10T01:32:50;98597.28;;;13.33;100.00
56912;BME280;42800;53.928;27.662;2023-06-10T01:35:17;98581.13;;;13.32;100.00
56912;BME280;42800;53.928;27.662;2023-06-10T01:37:46;98600.41;;;13.28;100.00
56912;BME280;42800;53.928;27.662;2023-06-10T01:40:13;98603.94;;;13.36;100.00
56912;BME280;42800;53.928;27.662;2023-06-10T01:42:39;98615.75;;;13.40;100.00
56912;BME280;42800;53.928;27.662;2023-06-10T01:45:06;98650.72;;;13.54;100.00
56912;BME280;42800;53.928;27.662;2023-06-10T01:47:32;98629.88;;;13.42;100.00
56912;BME280;42800;53.928;27.662;2023-06-10T01:49:58;98626.34;;;13.41;100.00
56912;BME280;42800;53.928;27.662;2023-06-10T01:52:24;98655.81;;;13.59;100.00
56912;BME280;42800;53.928;27.662;2023-06-10T01:54:50;98688.47;;;13.60;100.00
56912;BME280;42800;53.928;27.662;2023-06-10T01:57:17;98703.84;;;13.33;100.00
56912;BME280;42800;53.928;27.662;2023-06-10T01:59:43;98705.41;;;13.34;100.00
56912;BME280;42800;53.928;27.662;2023-06-10T02:02:10;98735.28;;;13.39;100.00
56912;BME280;42800;53.928;27.662;2023-06-10T02:04:36;98694.78;;;13.25;100.00
56912;BME280;42800;53.928;27.662;2023-06-10T02:07:02;98703.81;;;13.54;100.00
56912;BME280;42800;53.928;27.662;2023-06-10T02:09:29;98718.75;;;13.42;100.00
56912;BME280;42800;53.928;27.662;2023-06-10T02:11:55;98744.75;;;13.41;100.00
56912;BME280;42800;53.928;27.662;2023-06-10T02:14:22;98727.81;;;13.25;100.00
56912;BME280;42800;53.928;27.662;2023-06-10T02:16:47;98728.63;;;13.40;100.00
56912;BME280;42800;53.928;27.662;2023-06-10T02:19:13;98733.31;;;13.36;100.00
56912;BME280;42800;53.928;27.662;2023-06-10T02:21:39;98744.75;;;13.41;100.00
56912;BME280;42800;53.928;27.662;2023-06-10T02:24:06;98766.78;;;13.31;100.00
56912;BME280;42800;53.928;27.662;2023-06-10T02:26:32;98782.84;;;13.18;100.00
56912;BME280;42800;53.928;27.662;2023-06-10T02:28:58;98748.25;;;13.21;100.00
56912;BME280;42800;53.928;27.662;2023-06-10T02:31:24;98770.66;;;13.23;100.00
56912;BME280;42800;53.928;27.662;2023-06-10T02:33:51;98760.81;;;13.18;100.00
56912;BME280;42800;53.928;27.662;2023-06-10T02:36:17;98755.69;;;13.09;100.00
56912;BME280;42800;53.928;27.662;2023-06-10T02:38:43;98769.94;;;13.33;100.00
56912;BME280;42800;53.928;27.662;2023-06-10T02:41:09;98759.25;;;13.21;100.00
56912;BME280;42800;53.928;27.662;2023-06-10T02:43:35;98784.47;;;13.33;100.00
56912;BME280;42800;53.928;27.662;2023-06-10T02:46:01;98793.50;;;13.62;100.00
56912;BME280;42800;53.928;27.662;2023-06-10T02:48:27;98778.97;;;13.30;100.00
56912;BME280;42800;53.928;27.662;2023-06-10T02:50:53;98758.00;;;12.86;100.00
56912;BME280;42800;53.928;27.662;2023-06-10T02:53:21;98734.88;;;13.23;100.00
56912;BME280;42800;53.928;27.662;2023-06-10T02:55:47;98775.44;;;13.40;100.00
56912;BME280;42800;53.928;27.662;2023-06-10T02:58:13;98770.31;;;13.31;100.00
56912;BME280;42800;53.928;27.662;2023-06-10T03:00:39;98767.91;;;13.12;100.00
56912;BME280;42800;53.928;27.662;2023-06-10T03:03:06;98754.13;;;13.08;100.00
56912;BME280;42800;53.928;27.662;2023-06-10T03:05:33;98742.69;;;12.88;100.00
56912;BME280;42800;53.928;27.662;2023-06-10T03:07:59;98756.50;;;13.13;100.00
56912;BME280;42800;53.928;27.662;2023-06-10T03:10:24;98763.59;;;13.29;100.00
56912;BME280;42800;53.928;27.662;2023-06-10T03:12:51;98771.81;;;13.07;100.00
56912;BME280;42800;53.928;27.662;2023-06-10T03:15:16;98758.84;;;13.11;100.00
56912;BME280;42800;53.928;27.662;2023-06-10T03:17:42;98769.09;;;13.22;100.00
56912;BME280;42800;53.928;27.662;2023-06-10T03:20:09;98761.19;;;13.09;100.00
56912;BME280;42800;53.928;27.662;2023-06-10T03:22:36;98783.19;;;12.99;100.00
56912;BME280;42800;53.928;27.662;2023-06-10T03:25:03;98745.09;;;13.08;100.00
56912;BME280;42800;53.928;27.662;2023-06-10T03:27:29;98774.59;;;13.14;100.00
56912;BME280;42800;53.928;27.662;2023-06-10T03:29:56;98826.56;;;13.45;100.00
56912;BME280;42800;53.928;27.662;2023-06-10T03:32:22;98807.94;;;12.81;100.00
56912;BME280;42800;53.928;27.662;2023-06-10T03:34:47;98814.69;;;13.23;100.00
56912;BME280;42800;53.928;27.662;2023-06-10T03:37:13;98812.78;;;13.34;100.00
56912;BME280;42800;53.928;27.662;2023-06-10T03:39:40;98829.31;;;13.34;100.00
56912;BME280;42800;53.928;27.662;2023-06-10T03:42:06;98843.50;;;13.43;100.00
56912;BME280;42800;53.928;27.662;2023-06-10T03:44:32;98837.56;;;13.37;100.00
56912;BME280;42800;53.928;27.662;2023-06-10T03:46:59;98861.16;;;13.53;100.00
56912;BME280;42800;53.928;27.662;2023-06-10T03:49:25;98873.38;;;13.66;100.00
56912;BME280;42800;53.928;27.662;2023-06-10T03:51:52;98871.81;;;13.54;100.00
56912;BME280;42800;53.928;27.662;2023-06-10T03:54:18;98882.84;;;13.76;100.00
56912;BME280;42800;53.928;27.662;2023-06-10T03:56:45;98881.63;;;13.52;100.00
56912;BME280;42800;53.928;27.662;2023-06-10T03:59:11;98882.44;;;13.59;100.00
56912;BME280;42800;53.928;27.662;2023-06-10T04:01:36;98874.56;;;13.72;100.00
56912;BME280;42800;53.928;27.662;2023-06-10T04:04:03;98852.09;;;13.31;100.00
56912;BME280;42800;53.928;27.662;2023-06-10T04:06:29;98832.81;;;13.24;100.00
56912;BME280;42800;53.928;27.662;2023-06-10T04:08:55;98834.41;;;13.42;100.00
56912;BME280;42800;53.928;27.662;2023-06-10T04:11:22;98855.28;;;13.61;100.00
56912;BME280;42800;53.928;27.662;2023-06-10T04:13:49;98829.72;;;13.39;100.00
56912;BME280;42800;53.928;27.662;2023-06-10T04:16:15;98847.81;;;13.65;100.00
56912;BME280;42800;53.928;27.662;2023-06-10T04:18:41;98863.16;;;13.52;100.00
56912;BME280;42800;53.928;27.662;2023-06-10T04:21:07;98838.34;;;13.41;100.00
56912;BME280;42800;53.928;27.662;2023-06-10T04:23:34;98861.22;;;13.56;100.00
56912;BME280;42800;53.928;27.662;2023-06-10T04:26:02;98867.88;;;13.55;100.00
56912;BME280;42800;53.928;27.662;2023-06-10T04:28:27;98833.63;;;13.49;100.00
56912;BME280;42800;53.928;27.662;2023-06-10T04:30:54;98826.16;;;13.42;100.00
56912;BME280;42800;53.928;27.662;2023-06-10T04:33:20;98824.22;;;13.39;100.00
56912;BME280;42800;53.928;27.662;2023-06-10T04:35:46;98832.84;;;13.45;100.00
56912;BME280;42800;53.928;27.662;2023-06-10T04:38:12;98825.00;;;13.47;100.00
56912;BME280;42800;53.928;27.662;2023-06-10T04:40:39;98854.13;;;13.70;100.00
56912;BME280;42800;53.928;27.662;2023-06-10T04:43:05;98836.38;;;13.99;100.00
56912;BME280;42800;53.928;27.662;2023-06-10T04:45:31;98876.16;;;13.87;100.00
56912;BME280;42800;53.928;27.662;2023-06-10T04:47:58;98843.88;;;13.74;100.00
56912;BME280;42800;53.928;27.662;2023-06-10T04:50:24;98861.97;;;13.82;100.00
56912;BME280;42800;53.928;27.662;2023-06-10T04:52:50;98880.09;;;13.90;100.00
56912;BME280;42800;53.928;27.662;2023-06-10T04:55:16;98910.75;;;14.39;100.00
56912;BME280;42800;53.928;27.662;2023-06-10T04:57:42;98899.00;;;13.88;100.00
56912;BME280;42800;53.928;27.662;2023-06-10T05:00:08;98859.59;;;14.30;100.00
56912;BME280;42800;53.928;27.662;2023-06-10T05:02:35;98877.31;;;14.33;100.00
56912;BME280;42800;53.928;27.662;2023-06-10T05:05:01;98889.88;;;14.41;100.00
56912;BME280;42800;53.928;27.662;2023-06-10T05:07:27;98883.19;;;14.31;100.00
56912;BME280;42800;53.928;27.662;2023-06-10T05:09:53;98845.81;;;14.09;100.00
56912;BME280;42800;53.928;27.662;2023-06-10T05:12:19;98850.53;;;14.30;100.00
56912;BME280;42800;53.928;27.662;2023-06-10T05:14:45;98837.56;;;14.16;100.00
56912;BME280;42800;53.928;27.662;2023-06-10T05:17:11;98845.84;;;13.98;100.00
56912;BME280;42800;53.928;27.662;2023-06-10T05:19:38;98805.28;;;13.92;100.00
56912;BME280;42800;53.928;27.662;2023-06-10T05:22:05;98808.00;;;14.20;100.00
56912;BME280;42800;53.928;27.662;2023-06-10T05:24:31;98782.09;;;13.82;100.00
56912;BME280;42800;53.928;27.662;2023-06-10T05:26:56;98824.88;;;14.51;100.00
56912;BME280;42800;53.928;27.662;2023-06-10T05:29:23;98969.28;;;16.02;100.00
56912;BME280;42800;53.928;27.662;2023-06-10T05:31:49;99043.31;;;16.32;100.00
56912;BME280;42800;53.928;27.662;2023-06-10T05:34:15;99110.41;;;17.78;100.00
56912;BME280;42800;53.928;27.662;2023-06-10T05:36:41;99125.59;;;17.29;100.00
56912;BME280;42800;53.928;27.662;2023-06-10T05:39:08;99128.91;;;17.54;100.00
56912;BME280;42800;53.928;27.662;2023-06-10T05:41:35;99126.81;;;17.62;100.00
56912;BME280;42800;53.928;27.662;2023-06-10T05:44:00;99137.13;;;17.61;100.00
56912;BME280;42800;53.928;27.662;2023-06-10T05:46:26;99154.34;;;18.14;100.00
56912;BME280;42800;53.928;27.662;2023-06-10T05:48:52;99184.91;;;18.72;100.00
56912;BME280;42800;53.928;27.662;2023-06-10T05:51:18;99176.41;;;18.25;100.00
56912;BME280;42800;53.928;27.662;2023-06-10T05:53:44;99197.97;;;19.92;100.00
56912;BME280;42800;53.928;27.662;2023-06-10T05:56:12;99184.47;;;18.46;100.00
56912;BME280;42800;53.928;27.662;2023-06-10T05:58:38;99188.56;;;19.19;100.00
56912;BME280;42800;53.928;27.662;2023-06-10T06:01:04;99178.38;;;18.55;100.00
56912;BME280;42800;53.928;27.662;2023-06-10T06:03:30;99184.56;;;19.20;100.00
56912;BME280;42800;53.928;27.662;2023-06-10T06:05:56;99189.13;;;19.54;100.00
56912;BME280;42800;53.928;27.662;2023-06-10T06:08:22;99171.63;;;19.10;100.00
56912;BME280;42800;53.928;27.662;2023-06-10T06:10:48;99170.44;;;18.57;100.00
56912;BME280;42800;53.928;27.662;2023-06-10T06:13:14;99183.28;;;18.74;100.00
56912;BME280;42800;53.928;27.662;2023-06-10T06:15:40;99180.97;;;19.43;100.00
56912;BME280;42800;53.928;27.662;2023-06-10T06:18:06;99214.78;;;19.85;100.00
56912;BME280;42800;53.928;27.662;2023-06-10T06:20:32;99210.88;;;19.83;100.00
56912;BME280;42800;53.928;27.662;2023-06-10T06:22:58;99217.72;;;20.38;100.00
56912;BME280;42800;53.928;27.662;2023-06-10T06:25:24;99231.78;;;20.71;100.00
56912;BME280;42800;53.928;27.662;2023-06-10T06:27:50;99211.94;;;20.29;100.00
56912;BME280;42800;53.928;27.662;2023-06-10T06:30:16;99222.03;;;20.03;100.00
56912;BME280;42800;53.928;27.662;2023-06-10T06:32:42;99209.00;;;19.52;100.00
56912;BME280;42800;53.928;27.662;2023-06-10T06:35:08;99191.72;;;19.65;100.00
56912;BME280;42800;53.928;27.662;2023-06-10T06:37:35;99206.81;;;19.87;100.00
56912;BME280;42800;53.928;27.662;2023-06-10T06:40:01;99210.97;;;20.91;100.00
56912;BME280;42800;53.928;27.662;2023-06-10T06:42:27;99219.44;;;20.52;100.00
56912;BME280;42800;53.928;27.662;2023-06-10T06:44:53;99234.44;;;20.18;100.00
56912;BME280;42800;53.928;27.662;2023-06-10T06:47:20;99244.97;;;21.03;99.85
56912;BME280;42800;53.928;27.662;2023-06-10T06:49:46;99246.25;;;20.02;100.00
56912;BME280;42800;53.928;27.662;2023-06-10T06:52:12;99241.97;;;19.78;100.00
56912;BME280;42800;53.928;27.662;2023-06-10T06:54:38;99205.69;;;19.61;100.00
56912;BME280;42800;53.928;27.662;2023-06-10T06:57:05;99230.78;;;20.21;100.00
56912;BME280;42800;53.928;27.662;2023-06-10T06:59:31;99226.41;;;20.96;100.00
56912;BME280;42800;53.928;27.662;2023-06-10T07:01:57;99242.22;;;20.27;100.00
56912;BME280;42800;53.928;27.662;2023-06-10T07:04:23;99237.25;;;20.74;100.00
56912;BME280;42800;53.928;27.662;2023-06-10T07:06:49;99237.72;;;20.73;100.00
56912;BME280;42800;53.928;27.662;2023-06-10T07:09:15;99232.06;;;21.09;100.00
56912;BME280;42800;53.928;27.662;2023-06-10T07:11:41;99238.25;;;21.00;100.00
56912;BME280;42800;53.928;27.662;2023-06-10T07:14:07;99242.00;;;21.75;96.47
56912;BME280;42800;53.928;27.662;2023-06-10T07:16:34;99258.41;;;21.73;96.05
56912;BME280;42800;53.928;27.662;2023-06-10T07:19:00;99255.84;;;20.97;99.28
56912;BME280;42800;53.928;27.662;2023-06-10T07:21:26;99240.63;;;20.45;100.00
56912;BME280;42800;53.928;27.662;2023-06-10T07:23:53;99247.22;;;21.08;100.00
56912;BME280;42800;53.928;27.662;2023-06-10T07:26:22;99244.31;;;21.48;100.00
56912;BME280;42800;53.928;27.662;2023-06-10T07:28:48;99251.66;;;21.87;98.31
56912;BME280;42800;53.928;27.662;2023-06-10T07:31:14;99261.00;;;22.26;94.93
56912;BME280;42800;53.928;27.662;2023-06-10T07:33:40;99268.94;;;22.27;95.05
56912;BME280;42800;53.928;27.662;2023-06-10T07:36:07;99267.56;;;21.74;95.94
56912;BME280;42800;53.928;27.662;2023-06-10T07:38:33;99253.28;;;21.23;99.94
56912;BME280;42800;53.928;27.662;2023-06-10T07:40:59;99253.63;;;22.03;95.25
56912;BME280;42800;53.928;27.662;2023-06-10T07:43:25;99243.34;;;21.38;97.77
56912;BME280;42800;53.928;27.662;2023-06-10T07:45:51;99242.72;;;21.63;100.00
56912;BME280;42800;53.928;27.662;2023-06-10T07:48:17;99238.94;;;21.86;97.27
56912;BME280;42800;53.928;27.662;2023-06-10T07:50:43;99255.28;;;22.17;97.82
56912;BME280;42800;53.928;27.662;2023-06-10T07:53:09;99260.94;;;21.68;96.98
56912;BME280;42800;53.928;27.662;2023-06-10T07:55:36;99244.41;;;21.44;100.00
56912;BME280;42800;53.928;27.662;2023-06-10T07:58:02;99267.81;;;22.92;90.68
56912;BME280;42800;53.928;27.662;2023-06-10T08:00:28;99268.41;;;22.45;97.30
56912;BME280;42800;53.928;27.662;2023-06-10T08:02:54;99261.44;;;20.97;100.00
56912;BME280;42800;53.928;27.662;2023-06-10T08:05:21;99263.78;;;21.15;100.00
56912;BME280;42800;53.928;27.662;2023-06-10T08:07:47;99278.75;;;22.03;99.52
56912;BME280;42800;53.928;27.662;2023-06-10T08:10:13;99269.41;;;21.64;97.52
56912;BME280;42800;53.928;27.662;2023-06-10T08:12:39;99248.31;;;21.92;97.86
56912;BME280;42800;53.928;27.662;2023-06-10T08:15:06;99267.47;;;21.61;99.14
56912;BME280;42800;53.928;27.662;2023-06-10T08:17:32;99263.22;;;21.56;96.75
56912;BME280;42800;53.928;27.662;2023-06-10T08:19:58;99307.38;;;21.91;91.49
56912;BME280;42800;53.928;27.662;2023-06-10T08:22:24;99270.69;;;21.76;95.56
56912;BME280;42800;53.928;27.662;2023-06-10T08:24:50;99272.72;;;22.04;91.60
56912;BME280;42800;53.928;27.662;2023-06-10T08:27:16;99252.44;;;22.46;92.41
56912;BME280;42800;53.928;27.662;2023-06-10T08:29:43;99284.41;;;22.99;86.73
56912;BME280;42800;53.928;27.662;2023-06-10T08:32:09;99283.34;;;22.68;87.12
56912;BME280;42800;53.928;27.662;2023-06-10T08:34:34;99288.56;;;22.66;86.50
56912;BME280;42800;53.928;27.662;2023-06-10T08:37:01;99307.34;;;23.33;79.88
56912;BME280;42800;53.928;27.662;2023-06-10T08:39:27;99292.69;;;23.29;79.43
56912;BME280;42800;53.928;27.662;2023-06-10T08:42:00;99310.34;;;23.25;77.96
56912;BME280;42800;53.928;27.662;2023-06-10T08:44:31;99273.44;;;23.05;80.28
56912;BME280;42800;53.928;27.662;2023-06-10T08:47:00;99304.78;;;22.58;78.30
56912;BME280;42800;53.928;27.662;2023-06-10T08:49:26;99307.63;;;22.13;83.96
56912;BME280;42800;53.928;27.662;2023-06-10T08:51:56;99303.44;;;23.30;79.40
56912;BME280;42800;53.928;27.662;2023-06-10T08:54:26;99311.03;;;23.68;78.10
56912;BME280;42800;53.928;27.662;2023-06-10T08:56:54;99295.22;;;23.48;75.36
56912;BME280;42800;53.928;27.662;2023-06-10T08:59:21;99307.91;;;23.40;76.68
56912;BME280;42800;53.928;27.662;2023-06-10T09:01:47;99309.13;;;23.14;75.18
56912;BME280;42800;53.928;27.662;2023-06-10T09:04:14;99307.78;;;23.44;75.44
56912;BME280;42800;53.928;27.662;2023-06-10T09:06:41;99293.09;;;22.34;79.45
56912;BME280;42800;53.928;27.662;2023-06-10T09:09:08;99306.47;;;23.23;76.67
56912;BME280;42800;53.928;27.662;2023-06-10T09:11:34;99312.84;;;23.23;73.86
56912;BME280;42800;53.928;27.662;2023-06-10T09:14:00;99304.34;;;22.72;79.11
56912;BME280;42800;53.928;27.662;2023-06-10T09:16:26;99308.78;;;23.12;76.58
56912;BME280;42800;53.928;27.662;2023-06-10T09:18:52;99310.81;;;23.24;77.04
56912;BME280;42800;53.928;27.662;2023-06-10T09:21:21;99319.31;;;23.46;75.13
56912;BME280;42800;53.928;27.662;2023-06-10T09:23:47;99312.47;;;23.09;74.39
56912;BME280;42800;53.928;27.662;2023-06-10T09:26:14;99329.69;;;23.58;74.89
56912;BME280;42800;53.928;27.662;2023-06-10T09:28:41;99337.78;;;23.56;73.46
56912;BME280;42800;53.928;27.662;2023-06-10T09:31:09;99335.38;;;24.28;71.81
56912;BME280;42800;53.928;27.662;2023-06-10T09:33:37;99333.00;;;24.61;68.21
56912;BME280;42800;53.928;27.662;2023-06-10T09:36:03;99339.75;;;23.94;70.35
56912;BME280;42800;53.928;27.662;2023-06-10T09:38:31;99313.53;;;24.01;71.93
56912;BME280;42800;53.928;27.662;2023-06-10T09:40:57;99334.81;;;23.85;69.34
56912;BME280;42800;53.928;27.662;2023-06-10T09:43:38;99337.44;;;23.80;69.10
56912;BME280;42800;53.928;27.662;2023-06-10T09:46:04;99341.94;;;23.26;69.67
56912;BME280;42800;53.928;27.662;2023-06-10T09:48:34;99336.06;;;22.95;70.08
56912;BME280;42800;53.928;27.662;2023-06-10T09:51:00;99332.06;;;23.73;69.54
56912;BME280;42800;53.928;27.662;2023-06-10T09:53:26;99331.78;;;22.90;72.16
56912;BME280;42800;53.928;27.662;2023-06-10T09:55:53;99334.25;;;22.59;72.76
56912;BME280;42800;53.928;27.662;2023-06-10T09:58:33;99329.19;;;22.41;73.21
56912;BME280;42800;53.928;27.662;2023-06-10T10:01:00;99322.38;;;22.84;72.53
56912;BME280;42800;53.928;27.662;2023-06-10T10:03:29;99340.47;;;22.38;71.13
56912;BME280;42800;53.928;27.662;2023-06-10T10:05:58;99329.53;;;21.98;73.88
56912;BME280;42800;53.928;27.662;2023-06-10T10:08:24;99333.25;;;22.95;72.05
56912;BME280;42800;53.928;27.662;2023-06-10T10:10:50;99338.22;;;23.16;68.86
56912;BME280;42800;53.928;27.662;2023-06-10T10:13:17;99332.94;;;22.93;69.84
56912;BME280;42800;53.928;27.662;2023-06-10T10:15:45;99334.22;;;22.88;69.60
56912;BME280;42800;53.928;27.662;2023-06-10T10:18:14;99349.63;;;23.35;67.76
56912;BME280;42800;53.928;27.662;2023-06-10T10:20:46;99318.56;;;22.78;70.43
56912;BME280;42800;53.928;27.662;2023-06-10T10:23:20;99333.78;;;22.19;71.03
56912;BME280;42800;53.928;27.662;2023-06-10T10:25:52;99330.84;;;22.68;71.32
56912;BME280;42800;53.928;27.662;2023-06-10T10:28:21;99323.13;;;22.72;70.16
56912;BME280;42800;53.928;27.662;2023-06-10T10:30:53;99329.66;;;22.40;69.51
56912;BME280;42800;53.928;27.662;2023-06-10T10:33:23;99354.19;;;22.32;68.37
56912;BME280;42800;53.928;27.662;2023-06-10T10:35:53;99327.31;;;22.05;70.41
56912;BME280;42800;53.928;27.662;2023-06-10T10:38:21;99335.38;;;21.87;70.81
56912;BME280;42800;53.928;27.662;2023-06-10T10:40:47;99340.25;;;22.74;68.23
56912;BME280;42800;53.928;27.662;2023-06-10T10:43:14;99333.53;;;22.29;69.26
56912;BME280;42800;53.928;27.662;2023-06-10T10:45:42;99323.41;;;22.48;69.13
56912;BME280;42800;53.928;27.662;2023-06-10T10:48:09;99310.88;;;21.62;70.72
56912;BME280;42800;53.928;27.662;2023-06-10T10:50:37;99318.16;;;22.21;71.05
56912;BME280;42800;53.928;27.662;2023-06-10T10:53:06;99324.50;;;21.76;72.06
56912;BME280;42800;53.928;27.662;2023-06-10T10:55:32;99328.75;;;21.48;72.78
56912;BME280;42800;53.928;27.662;2023-06-10T10:57:59;99325.72;;;21.06;73.80
56912;BME280;42800;53.928;27.662;2023-06-10T11:00:29;99314.13;;;21.44;75.90
56912;BME280;42800;53.928;27.662;2023-06-10T11:02:58;99319.97;;;21.66;73.64
56912;BME280;42800;53.928;27.662;2023-06-10T11:05:31;99328.31;;;21.82;71.40
56912;BME280;42800;53.928;27.662;2023-06-10T11:07:58;99349.63;;;21.24;74.12
56912;BME280;42800;53.928;27.662;2023-06-10T11:10:31;99343.97;;;20.91;73.75
56912;BME280;42800;53.928;27.662;2023-06-10T11:12:57;99338.13;;;20.65;76.67
56912;BME280;42800;53.928;27.662;2023-06-10T11:15:24;99329.66;;;20.53;75.50
56912;BME280;42800;53.928;27.662;2023-06-10T11:18:13;99331.63;;;20.72;74.79
56912;BME280;42800;53.928;27.662;2023-06-10T11:20:58;99324.41;;;20.55;75.65
56912;BME280;42800;53.928;27.662;2023-06-10T11:26:20;99316.66;;;20.82;74.13
56912;BME280;42800;53.928;27.662;2023-06-10T11:29:06;99353.22;;;21.04;72.43
56912;BME280;42800;53.928;27.662;2023-06-10T11:31:38;99334.09;;;21.06;75.82
56912;BME280;42800;53.928;27.662;2023-06-10T11:34:06;99334.78;;;21.10;73.12
56912;BME280;42800;53.928;27.662;2023-06-10T11:36:33;99333.56;;;20.55;72.77
56912;BME280;42800;53.928;27.662;2023-06-10T11:39:02;99343.13;;;20.74;73.49
56912;BME280;42800;53.928;27.662;2023-06-10T11:41:29;99333.25;;;20.50;73.57
56912;BME280;42800;53.928;27.662;2023-06-10T11:43:56;99330.44;;;20.53;74.76
56912;BME280;42800;53.928;27.662;2023-06-10T11:46:22;99324.81;;;20.93;73.08
56912;BME280;42800;53.928;27.662;2023-06-10T11:48:49;99336.97;;;21.03;70.92
56912;BME280;42800;53.928;27.662;2023-06-10T11:51:16;99334.63;;;20.81;71.88
56912;BME280;42800;53.928;27.662;2023-06-10T11:53:44;99335.50;;;21.14;72.32
56912;BME280;42800;53.928;27.662;2023-06-10T11:56:10;99338.34;;;21.11;70.60
56912;BME280;42800;53.928;27.662;2023-06-10T11:58:36;99332.88;;;21.07;70.78
56912;BME280;42800;53.928;27.662;2023-06-10T12:01:01;99356.69;;;20.72;71.36
56912;BME280;42800;53.928;27.662;2023-06-10T12:03:35;99338.84;;;20.70;73.48
56912;BME280;42800;53.928;27.662;2023-06-10T12:06:03;99343.84;;;20.15;74.94
56912;BME280;42800;53.928;27.662;2023-06-10T12:08:30;99342.88;;;21.05;74.11
56912;BME280;42800;53.928;27.662;2023-06-10T12:10:56;99337.06;;;21.15;72.09
56912;BME280;42800;53.928;27.662;2023-06-10T12:13:23;99337.91;;;21.12;71.36
56912;BME280;42800;53.928;27.662;2023-06-10T12:15:50;99351.78;;;20.80;71.99
56912;BME280;42800;53.928;27.662;2023-06-10T12:18:16;99344.19;;;20.60;71.36
56912;BME280;42800;53.928;27.662;2023-06-10T12:20:42;99326.25;;;20.41;71.09
56912;BME280;42800;53.928;27.662;2023-06-10T12:23:09;99340.88;;;20.45;71.44
56912;BME280;42800;53.928;27.662;2023-06-10T12:25:37;99340.97;;;20.62;73.34
56912;BME280;42800;53.928;27.662;2023-06-10T12:28:03;99334.63;;;20.61;72.72
56912;BME280;42800;53.928;27.662;2023-06-10T12:30:31;99341.88;;;20.35;73.89
56912;BME280;42800;53.928;27.662;2023-06-10T12:32:57;99340.19;;;20.61;74.25
56912;BME280;42800;53.928;27.662;2023-06-10T12:35:24;99340.25;;;20.78;73.82
56912;BME280;42800;53.928;27.662;2023-06-10T12:38:01;99341.19;;;21.27;72.54
56912;BME280;42800;53.928;27.662;2023-06-10T12:40:30;99341.69;;;20.86;74.58
56912;BME280;42800;53.928;27.662;2023-06-10T12:42:58;99351.34;;;20.61;72.62
56912;BME280;42800;53.928;27.662;2023-06-10T12:45:27;99357.38;;;20.36;71.40